Time;durP1;ratioP1;P1;durP2;ratioP2;P2;SDS_P1;SDS_P2;PMS_P1;PMS_P2;Temp;Humidity;BMP_temperature;BMP_pressure;BME280_temperature;BME280_humidity;BME280_pressure;Samples;Min_cycle;Max_cycle;Signal;HPM_P1;HPM_P2
2023/11/26 00:02:04;;;;;;;23.98;7.45;;;1.60;99.90;;;;;;5023878;28;20061;-88
2023/11/26 00:04:30;;;;;;;17.10;5.63;;;1.60;99.90;;;;;;5022422;28;20048;-88
2023/11/26 00:06:56;;;;;;;19.33;5.28;;;1.60;99.90;;;;;;5032614;28;20516;-88
2023/11/26 00:09:22;;;;;;;17.45;5.53;;;1.50;99.90;;;;;;5021516;28;20052;-88
2023/11/26 00:11:49;;;;;;;23.92;5.50;;;1.50;99.90;;;;;;5022332;28;20432;-87
2023/11/26 00:14:14;;;;;;;21.88;5.85;;;1.50;99.90;;;;;;5014478;28;20025;-88
2023/11/26 00:16:40;;;;;;;19.52;5.18;;;1.50;99.90;;;;;;5022936;28;20499;-89
2023/11/26 00:19:06;;;;;;;27.13;6.10;;;1.50;99.90;;;;;;5018957;28;20057;-88
2023/11/26 00:21:34;;;;;;;15.10;4.75;;;1.50;99.90;;;;;;5025804;28;20425;-88
2023/11/26 00:24:00;;;;;;;25.15;5.40;;;1.50;99.90;;;;;;5016507;28;20025;-88
2023/11/26 00:26:27;;;;;;;16.88;5.55;;;1.40;99.90;;;;;;5013913;28;20999;-89
2023/11/26 00:28:53;;;;;;;20.00;5.70;;;1.40;99.90;;;;;;5030681;28;20063;-89
2023/11/26 00:31:20;;;;;;;21.35;5.25;;;1.40;99.90;;;;;;5014122;28;20025;-89
2023/11/26 00:33:48;;;;;;;14.57;5.00;;;1.40;99.90;;;;;;5027257;28;20164;-88
2023/11/26 00:36:21;;;;;;;14.10;5.15;;;1.40;99.90;;;;;;5019067;28;20049;-88
2023/11/26 00:38:47;;;;;;;14.10;4.70;;;1.40;99.90;;;;;;5016364;28;20042;-88
2023/11/26 00:41:13;;;;;;;12.45;4.22;;;1.30;99.90;;;;;;5020231;28;20033;-87
2023/11/26 00:43:39;;;;;;;25.13;5.30;;;1.30;99.90;;;;;;5037671;28;20082;-88
2023/11/26 00:46:05;;;;;;;25.17;4.95;;;1.20;99.90;;;;;;5020295;28;20033;-87
2023/11/26 00:48:34;;;;;;;25.75;6.18;;;1.20;99.90;;;;;;5021180;28;20029;-88
2023/11/26 00:50:59;;;;;;;23.70;6.70;;;1.30;99.90;;;;;;5014549;28;20033;-88
2023/11/26 00:53:25;;;;;;;19.92;5.65;;;1.40;99.90;;;;;;5021696;28;20076;-87
2023/11/26 00:55:51;;;;;;;18.17;5.65;;;1.50;99.90;;;;;;5012614;28;20025;-87
2023/11/26 00:58:16;;;;;;;25.50;6.80;;;1.50;99.90;;;;;;5005891;28;20509;-87
2023/11/26 01:00:42;;;;;;;25.67;6.28;;;1.50;99.90;;;;;;5023098;28;20553;-87
2023/11/26 01:03:08;;;;;;;22.05;6.20;;;1.50;99.90;;;;;;5020129;28;20029;-88
2023/11/26 01:05:33;;;;;;;29.35;8.07;;;1.50;99.90;;;;;;5031641;28;20036;-87
2023/11/26 01:08:01;;;;;;;20.35;5.82;;;1.50;99.90;;;;;;5014364;28;20452;-87
2023/11/26 01:10:26;;;;;;;31.95;6.57;;;1.40;99.90;;;;;;5014805;28;20374;-88
2023/11/26 01:12:52;;;;;;;26.17;6.60;;;1.40;99.90;;;;;;5032851;28;20094;-88
2023/11/26 01:15:18;;;;;;;22.98;6.63;;;1.30;99.90;;;;;;5014893;28;20037;-87
2023/11/26 01:17:44;;;;;;;27.08;6.78;;;1.20;99.90;;;;;;5017562;28;20026;-87
2023/11/26 01:20:10;;;;;;;22.30;6.15;;;1.20;99.90;;;;;;5032118;28;20042;-87
2023/11/26 01:22:36;;;;;;;18.15;6.00;;;1.20;99.90;;;;;;5013392;28;20057;-88
2023/11/26 01:25:03;;;;;;;25.17;7.00;;;1.20;99.90;;;;;;5023948;28;20032;-88
2023/11/26 01:27:28;;;;;;;21.85;6.60;;;1.20;99.90;;;;;;5019178;28;20084;-88
2023/11/26 01:29:54;;;;;;;22.75;5.95;;;1.20;99.90;;;;;;5023986;28;20049;-88
2023/11/26 01:32:20;;;;;;;22.05;6.00;;;1.30;99.90;;;;;;5028963;28;20123;-88
2023/11/26 01:34:46;;;;;;;16.13;6.47;;;1.30;99.90;;;;;;5018095;28;20022;-88
2023/11/26 01:37:11;;;;;;;18.65;5.95;;;1.40;99.90;;;;;;5036003;28;20104;-87
2023/11/26 01:39:39;;;;;;;22.92;6.63;;;1.50;99.90;;;;;;5031387;28;20123;-88
2023/11/26 01:42:05;;;;;;;18.60;7.30;;;1.50;99.90;;;;;;5036026;28;20037;-88
2023/11/26 01:44:31;;;;;;;19.90;6.03;;;1.50;99.90;;;;;;5024193;28;20115;-88
2023/11/26 01:47:02;;;;;;;22.30;6.82;;;1.40;99.90;;;;;;5032185;28;20484;-88
2023/11/26 01:49:27;;;;;;;18.77;6.78;;;1.40;99.90;;;;;;5008412;28;20034;-88
2023/11/26 01:51:53;;;;;;;21.58;6.40;;;1.40;99.90;;;;;;5039323;28;20540;-88
2023/11/26 01:54:19;;;;;;;19.98;6.75;;;1.30;99.90;;;;;;5035575;28;20047;-88
2023/11/26 01:56:45;;;;;;;23.92;6.78;;;1.30;99.90;;;;;;5036014;28;20076;-87
2023/11/26 01:59:11;;;;;;;19.08;6.90;;;1.30;99.90;;;;;;5020828;28;20026;-87
2023/11/26 02:01:37;;;;;;;21.95;6.60;;;1.20;99.90;;;;;;5035757;28;20030;-87
2023/11/26 02:04:03;;;;;;;22.48;6.38;;;1.20;99.90;;;;;;5019100;28;20509;-88
2023/11/26 02:06:28;;;;;;;22.58;5.85;;;1.20;99.90;;;;;;5030867;28;20057;-88
2023/11/26 02:08:54;;;;;;;23.70;6.20;;;1.10;99.90;;;;;;5016766;28;20060;-87
2023/11/26 02:11:20;;;;;;;21.98;6.18;;;1.20;99.90;;;;;;5020386;28;20030;-87
2023/11/26 02:13:51;;;;;;;19.30;6.72;;;1.10;99.90;;;;;;5032531;28;20772;-87
2023/11/26 02:16:17;;;;;;;15.88;6.28;;;1.20;99.90;;;;;;5026945;28;20021;-87
2023/11/26 02:18:43;;;;;;;19.90;6.90;;;1.10;99.90;;;;;;5021584;28;20034;-88
2023/11/26 02:21:08;;;;;;;16.95;6.22;;;1.10;99.90;;;;;;5017275;28;20071;-87
2023/11/26 02:23:38;;;;;;;19.98;6.70;;;1.20;99.90;;;;;;5017508;28;20062;-87
2023/11/26 02:26:10;;;;;;;22.02;6.65;;;1.20;99.90;;;;;;5016072;28;20029;-87
2023/11/26 02:28:37;;;;;;;24.92;7.03;;;1.20;99.90;;;;;;5021378;28;20026;-88
2023/11/26 02:31:04;;;;;;;22.33;6.90;;;1.20;99.90;;;;;;5013012;28;20034;-87
2023/11/26 02:33:30;;;;;;;15.55;5.82;;;1.20;99.90;;;;;;5018497;28;20025;-87
2023/11/26 02:35:56;;;;;;;16.25;6.05;;;1.00;99.90;;;;;;5018127;28;20032;-87
2023/11/26 02:38:22;;;;;;;19.45;5.65;;;1.00;99.90;;;;;;5014668;28;20042;-87
2023/11/26 02:40:48;;;;;;;16.85;6.40;;;0.90;99.90;;;;;;5019818;28;20098;-87
2023/11/26 02:43:18;;;;;;;17.75;6.70;;;0.90;99.90;;;;;;5016953;28;20878;-87
2023/11/26 02:45:44;;;;;;;13.15;5.78;;;0.80;99.90;;;;;;5015616;28;20025;-87
2023/11/26 02:48:10;;;;;;;24.10;7.18;;;0.80;99.90;;;;;;5034466;28;20026;-87
2023/11/26 02:50:35;;;;;;;24.45;6.70;;;0.80;99.90;;;;;;5017195;28;20080;-86
2023/11/26 02:53:01;;;;;;;19.50;7.32;;;0.80;99.90;;;;;;5032775;28;20063;-87
2023/11/26 02:55:26;;;;;;;18.42;6.88;;;0.80;99.90;;;;;;5016137;28;20440;-86
2023/11/26 02:57:52;;;;;;;22.40;6.95;;;0.80;99.90;;;;;;5012829;28;20033;-87
2023/11/26 03:00:20;;;;;;;24.23;7.07;;;0.80;99.90;;;;;;5034425;28;20458;-87
2023/11/26 03:02:46;;;;;;;20.50;7.55;;;0.80;99.90;;;;;;5009179;28;20033;-88
2023/11/26 03:05:19;;;;;;;27.40;8.27;;;0.90;99.90;;;;;;5020070;28;20026;-86
2023/11/26 03:07:51;;;;;;;25.80;8.70;;;1.10;99.90;;;;;;5034512;28;20027;-86
2023/11/26 03:13:09;;;;;;;24.80;7.20;;;1.30;99.90;;;;;;5027485;28;20044;-86
2023/11/26 03:15:37;;;;;;;27.67;6.78;;;1.30;99.90;;;;;;5016683;28;20040;-87
2023/11/26 03:18:08;;;;;;;21.63;6.68;;;1.30;99.90;;;;;;5025784;28;20038;-87
2023/11/26 03:20:36;;;;;;;19.70;7.40;;;1.30;99.90;;;;;;5033284;28;20040;-87
2023/11/26 03:23:04;;;;;;;23.63;6.75;;;1.20;99.90;;;;;;5018317;28;20478;-87
2023/11/26 03:25:30;;;;;;;19.30;6.43;;;1.20;99.90;;;;;;5009045;28;20033;-87
2023/11/26 03:27:58;;;;;;;20.40;7.25;;;1.10;99.90;;;;;;5016341;28;20021;-86
2023/11/26 03:30:25;;;;;;;22.77;6.55;;;1.10;99.90;;;;;;5016464;28;20037;-87
2023/11/26 03:32:52;;;;;;;28.50;7.13;;;1.10;99.90;;;;;;5012385;28;20405;-87
2023/11/26 03:35:18;;;;;;;21.45;5.88;;;1.10;99.90;;;;;;5013540;28;20033;-87
2023/11/26 03:37:44;;;;;;;26.45;7.03;;;1.00;99.90;;;;;;5019126;28;20044;-87
2023/11/26 03:40:10;;;;;;;20.42;6.82;;;1.00;99.90;;;;;;5015945;28;20140;-87
2023/11/26 03:42:36;;;;;;;24.95;7.07;;;1.00;99.90;;;;;;5036758;28;20084;-86
2023/11/26 03:45:03;;;;;;;19.27;6.50;;;1.00;99.90;;;;;;5024561;28;20020;-86
2023/11/26 03:47:29;;;;;;;22.33;6.45;;;1.00;99.90;;;;;;5020311;28;20025;-86
2023/11/26 03:49:54;;;;;;;22.35;6.93;;;1.00;99.90;;;;;;5014026;28;20495;-86
2023/11/26 03:52:21;;;;;;;20.15;6.28;;;1.00;99.90;;;;;;5023783;28;20065;-85
2023/11/26 03:54:47;;;;;;;26.83;7.03;;;1.00;99.90;;;;;;5015312;28;20603;-86
2023/11/26 03:57:13;;;;;;;24.10;7.45;;;1.00;99.90;;;;;;5002921;28;20030;-87
2023/11/26 03:59:42;;;;;;;19.38;6.57;;;1.00;99.90;;;;;;5031993;28;20374;-87
2023/11/26 04:02:08;;;;;;;22.52;6.15;;;1.10;99.90;;;;;;5015881;28;20470;-87
2023/11/26 04:04:34;;;;;;;23.50;7.15;;;1.10;99.90;;;;;;5014624;28;20032;-87
2023/11/26 04:07:00;;;;;;;18.30;6.38;;;1.10;99.90;;;;;;5027378;28;20021;-86
2023/11/26 04:09:26;;;;;;;23.50;6.47;;;1.20;99.90;;;;;;5017628;28;20063;-87
2023/11/26 04:11:56;;;;;;;16.02;6.18;;;1.20;99.90;;;;;;5016455;28;20016;-87
2023/11/26 04:14:22;;;;;;;23.50;6.75;;;1.30;99.90;;;;;;5015974;28;20030;-87
2023/11/26 04:16:49;;;;;;;24.88;7.43;;;1.30;99.90;;;;;;5010716;28;20393;-87
2023/11/26 04:19:17;;;;;;;23.10;6.38;;;1.40;99.90;;;;;;5023645;28;20036;-87
2023/11/26 04:21:46;;;;;;;22.25;6.45;;;1.50;99.90;;;;;;5026560;28;20493;-87
2023/11/26 04:24:13;;;;;;;23.42;6.20;;;1.60;99.90;;;;;;5032872;28;20499;-87
2023/11/26 04:26:39;;;;;;;21.42;6.43;;;1.70;99.90;;;;;;5033512;28;20044;-86
2023/11/26 04:29:05;;;;;;;20.30;6.18;;;1.80;99.90;;;;;;5009502;28;20331;-87
2023/11/26 04:31:31;;;;;;;19.35;6.00;;;1.90;99.90;;;;;;5026487;28;20058;-87
2023/11/26 04:33:57;;;;;;;25.42;6.60;;;2.00;99.90;;;;;;5012332;28;20429;-87
2023/11/26 04:36:23;;;;;;;20.65;6.35;;;2.00;99.90;;;;;;5015373;28;20022;-87
2023/11/26 04:38:48;;;;;;;20.85;6.05;;;2.00;99.90;;;;;;5024787;28;20049;-87
2023/11/26 04:41:14;;;;;;;24.58;5.72;;;2.10;99.90;;;;;;5015114;28;20098;-87
2023/11/26 04:43:40;;;;;;;17.50;5.93;;;2.10;99.90;;;;;;5015660;28;20028;-87
2023/11/26 04:46:07;;;;;;;18.65;5.93;;;2.10;99.90;;;;;;5027949;28;20088;-85
2023/11/26 04:48:33;;;;;;;19.73;5.38;;;2.10;99.90;;;;;;5015809;28;20116;-86
2023/11/26 04:51:00;;;;;;;21.10;5.97;;;2.10;99.90;;;;;;5028968;28;20025;-87
2023/11/26 04:53:27;;;;;;;21.38;5.32;;;2.10;99.90;;;;;;5014670;28;20053;-87
2023/11/26 04:55:53;;;;;;;20.15;5.85;;;2.10;99.90;;;;;;5015338;28;20474;-87
2023/11/26 04:58:18;;;;;;;20.33;5.95;;;2.00;99.90;;;;;;5014523;28;20025;-87
2023/11/26 05:00:44;;;;;;;18.48;5.68;;;2.10;99.90;;;;;;5024923;28;20045;-87
2023/11/26 05:03:10;;;;;;;21.08;5.28;;;2.00;99.90;;;;;;5031773;28;20017;-87
2023/11/26 05:05:36;;;;;;;14.88;5.38;;;2.00;99.90;;;;;;5020231;28;20032;-86
2023/11/26 05:08:01;;;;;;;22.10;4.95;;;2.00;99.90;;;;;;5013692;28;20067;-87
2023/11/26 05:10:28;;;;;;;19.20;5.68;;;2.00;99.90;;;;;;5014620;28;20031;-87
2023/11/26 05:12:54;;;;;;;16.15;5.35;;;2.00;99.90;;;;;;5032327;28;20470;-87
2023/11/26 05:15:20;;;;;;;14.95;4.45;;;2.00;99.90;;;;;;5008174;28;20032;-87
2023/11/26 05:17:45;;;;;;;20.48;4.90;;;2.00;99.90;;;;;;5014113;28;20040;-87
2023/11/26 05:20:13;;;;;;;19.33;5.55;;;2.00;99.90;;;;;;5015118;28;20036;-87
2023/11/26 05:22:40;;;;;;;18.58;5.20;;;2.00;99.90;;;;;;5011214;28;20068;-87
2023/11/26 05:25:06;;;;;;;20.35;5.60;;;2.10;99.90;;;;;;5007621;28;20022;-87
2023/11/26 05:27:32;;;;;;;17.67;5.75;;;2.10;99.90;;;;;;5031631;28;20025;-87
2023/11/26 05:29:58;;;;;;;12.50;5.20;;;2.10;99.90;;;;;;5020008;28;20033;-88
2023/11/26 05:32:23;;;;;;;19.77;5.72;;;2.10;99.90;;;;;;5009842;28;20026;-87
2023/11/26 05:34:49;;;;;;;14.88;5.05;;;2.10;99.90;;;;;;5029777;28;20033;-87
2023/11/26 05:37:15;;;;;;;22.08;4.97;;;2.20;99.90;;;;;;5009770;28;20082;-87
2023/11/26 05:39:41;;;;;;;12.90;4.28;;;2.20;99.90;;;;;;5006258;28;20358;-86
2023/11/26 05:42:07;;;;;;;21.23;5.00;;;2.20;99.90;;;;;;5002901;28;20041;-87
2023/11/26 05:44:33;;;;;;;18.90;5.13;;;2.20;99.90;;;;;;5015578;28;20025;-87
2023/11/26 05:46:58;;;;;;;18.02;5.13;;;2.30;99.90;;;;;;5032089;28;20045;-87
2023/11/26 05:49:26;;;;;;;16.30;5.50;;;2.30;99.90;;;;;;5014153;28;20030;-87
2023/11/26 05:51:55;;;;;;;18.88;5.60;;;2.30;99.90;;;;;;5030265;28;20025;-87
2023/11/26 05:54:21;;;;;;;10.57;5.25;;;2.30;99.90;;;;;;5019336;28;20436;-87
2023/11/26 05:56:46;;;;;;;12.82;5.28;;;2.30;99.90;;;;;;5014590;28;20022;-87
2023/11/26 05:59:12;;;;;;;17.05;4.97;;;2.30;99.90;;;;;;5014080;28;20473;-86
2023/11/26 06:01:37;;;;;;;22.17;5.03;;;2.30;99.90;;;;;;5020068;28;20568;-87
2023/11/26 06:04:04;;;;;;;16.20;4.35;;;2.30;99.90;;;;;;5017179;28;20025;-87
2023/11/26 06:06:29;;;;;;;17.98;4.72;;;2.30;99.90;;;;;;5013096;28;20116;-87
2023/11/26 06:08:55;;;;;;;15.05;4.93;;;2.30;99.90;;;;;;5014798;28;20085;-86
2023/11/26 06:11:21;;;;;;;16.38;4.47;;;2.30;99.90;;;;;;5027537;28;20036;-86
2023/11/26 06:13:46;;;;;;;20.08;5.10;;;2.30;99.90;;;;;;5017129;28;20032;-87
2023/11/26 06:16:12;;;;;;;20.67;4.78;;;2.30;99.90;;;;;;5019976;28;20030;-86
2023/11/26 06:18:38;;;;;;;17.38;4.90;;;2.40;99.90;;;;;;5024799;28;20525;-86
2023/11/26 06:21:03;;;;;;;14.90;4.38;;;2.40;99.90;;;;;;5019564;28;20040;-87
2023/11/26 06:23:30;;;;;;;15.45;5.80;;;2.40;99.90;;;;;;5019573;28;20021;-86
2023/11/26 06:25:56;;;;;;;14.00;4.72;;;2.40;99.90;;;;;;5018168;28;20034;-87
2023/11/26 06:28:21;;;;;;;19.05;5.65;;;2.50;99.90;;;;;;5016913;28;20511;-87
2023/11/26 06:30:47;;;;;;;12.40;4.35;;;2.50;99.90;;;;;;5008972;28;20321;-87
2023/11/26 06:33:13;;;;;;;19.23;4.70;;;2.60;99.90;;;;;;5014609;28;20021;-87
2023/11/26 06:35:38;;;;;;;24.05;4.70;;;2.70;99.90;;;;;;5011085;28;20465;-86
2023/11/26 06:38:05;;;;;;;19.10;4.35;;;2.70;99.90;;;;;;5012863;28;20053;-87
2023/11/26 06:40:30;;;;;;;12.23;4.20;;;2.70;99.90;;;;;;5019579;28;20549;-87
2023/11/26 06:42:56;;;;;;;10.52;3.70;;;2.80;99.90;;;;;;5025517;28;20121;-86
2023/11/26 06:45:22;;;;;;;14.38;4.00;;;2.80;99.90;;;;;;5014804;28;20421;-86
2023/11/26 06:47:47;;;;;;;17.25;4.18;;;2.90;99.90;;;;;;5000378;28;20081;-86
2023/11/26 06:50:13;;;;;;;14.48;4.40;;;2.90;99.90;;;;;;5016996;28;20030;-86
2023/11/26 06:52:38;;;;;;;14.77;4.60;;;3.00;99.90;;;;;;5020035;28;20072;-86
2023/11/26 06:55:05;;;;;;;12.85;5.43;;;3.00;99.90;;;;;;5025920;28;20065;-86
2023/11/26 06:57:32;;;;;;;17.52;5.85;;;3.10;99.90;;;;;;5017084;28;20116;-86
2023/11/26 06:59:58;;;;;;;16.15;5.38;;;3.10;99.90;;;;;;5024318;28;20033;-87
2023/11/26 07:02:25;;;;;;;19.88;4.45;;;3.20;99.90;;;;;;5016407;28;20036;-86
2023/11/26 07:04:51;;;;;;;15.20;3.95;;;3.20;99.90;;;;;;5021728;28;20022;-87
2023/11/26 07:07:20;;;;;;;18.60;4.13;;;3.30;99.90;;;;;;5011742;28;20040;-87
2023/11/26 07:09:49;;;;;;;16.48;4.00;;;3.30;99.90;;;;;;5014846;28;20685;-87
2023/11/26 07:12:14;;;;;;;13.35;3.45;;;3.40;99.90;;;;;;5024546;28;20030;-87
2023/11/26 07:14:43;;;;;;;22.67;7.40;;;3.40;99.90;;;;;;5022215;28;20480;-87
2023/11/26 07:17:10;;;;;;;13.77;4.22;;;3.50;99.90;;;;;;5024377;28;20029;-88
2023/11/26 07:19:39;;;;;;;17.55;4.10;;;3.50;99.90;;;;;;5016503;28;20029;-87
2023/11/26 07:22:05;;;;;;;18.67;4.20;;;3.60;99.90;;;;;;5025074;28;20046;-87
2023/11/26 07:24:31;;;;;;;12.55;4.00;;;3.70;99.90;;;;;;5017121;28;20091;-87
2023/11/26 07:26:56;;;;;;;12.18;2.85;;;3.70;99.90;;;;;;5014758;28;20099;-88
2023/11/26 07:29:22;;;;;;;13.35;3.20;;;3.70;99.90;;;;;;5020832;28;20095;-88
2023/11/26 07:31:48;;;;;;;14.48;3.50;;;3.70;99.90;;;;;;5028720;28;20025;-87
2023/11/26 07:34:13;;;;;;;17.08;4.68;;;3.80;99.90;;;;;;5004663;28;20018;-87
2023/11/26 07:36:39;;;;;;;17.17;5.10;;;3.80;99.90;;;;;;5013705;28;20112;-87
2023/11/26 07:39:04;;;;;;;12.10;5.38;;;3.90;99.90;;;;;;5011685;28;23080;-87
2023/11/26 07:41:30;;;;;;;19.70;5.90;;;3.90;99.90;;;;;;5004139;28;20068;-87
2023/11/26 07:43:55;;;;;;;14.98;5.10;;;4.00;99.90;;;;;;4998950;28;20037;-87
2023/11/26 07:46:21;;;;;;;14.80;4.82;;;4.00;99.90;;;;;;5009955;28;20508;-88
2023/11/26 07:48:47;;;;;;;21.17;5.25;;;4.00;99.90;;;;;;5028195;28;20021;-89
2023/11/26 07:51:13;;;;;;;19.90;5.40;;;4.00;99.90;;;;;;5023103;28;20041;-88
2023/11/26 07:53:40;;;;;;;24.10;7.10;;;4.10;99.90;;;;;;5016685;28;20025;-88
2023/11/26 07:56:08;;;;;;;15.75;6.10;;;4.10;99.90;;;;;;5016719;28;20026;-87
2023/11/26 07:58:34;;;;;;;20.08;7.35;;;4.10;99.90;;;;;;5016324;28;20017;-87
2023/11/26 08:01:03;;;;;;;19.83;8.30;;;4.10;99.90;;;;;;5005158;28;20516;-87
2023/11/26 08:03:31;;;;;;;22.77;7.80;;;4.20;99.90;;;;;;4998254;28;20033;-87
2023/11/26 08:05:57;;;;;;;20.77;7.65;;;4.30;99.90;;;;;;5009524;28;20041;-87
2023/11/26 08:08:23;;;;;;;21.13;7.93;;;4.30;99.90;;;;;;5014956;28;20033;-87
2023/11/26 08:10:50;;;;;;;19.65;7.70;;;4.30;99.90;;;;;;5003874;28;20040;-87
2023/11/26 08:13:22;;;;;;;20.15;7.60;;;4.30;99.90;;;;;;5011003;28;20028;-87
2023/11/26 08:15:49;;;;;;;22.70;8.05;;;4.40;99.90;;;;;;5025543;28;20033;-87
2023/11/26 08:18:15;;;;;;;23.83;7.40;;;4.40;99.90;;;;;;5016945;28;20029;-87
2023/11/26 08:20:41;;;;;;;21.23;7.50;;;4.40;99.90;;;;;;5024371;28;20034;-87
2023/11/26 08:23:07;;;;;;;20.73;7.68;;;4.40;99.90;;;;;;5024269;28;20028;-87
2023/11/26 08:25:34;;;;;;;21.70;7.90;;;4.50;99.90;;;;;;5021102;28;20079;-87
2023/11/26 08:28:01;;;;;;;20.85;7.30;;;4.50;99.90;;;;;;5029500;28;20021;-87
2023/11/26 08:30:41;;;;;;;19.40;7.53;;;4.60;99.90;;;;;;5016805;28;20084;-87
2023/11/26 08:33:07;;;;;;;24.63;9.32;;;4.60;99.90;;;;;;5019230;28;20520;-87
2023/11/26 08:35:33;;;;;;;22.05;9.27;;;4.60;99.90;;;;;;5005807;28;20034;-87
2023/11/26 08:38:01;;;;;;;19.13;7.95;;;4.70;99.90;;;;;;5015622;28;20132;-86
2023/11/26 08:40:33;;;;;;;23.15;8.68;;;4.70;99.90;;;;;;5011163;28;20045;-86
2023/11/26 08:43:03;;;;;;;13.53;7.37;;;4.70;99.90;;;;;;5014179;28;20025;-87
2023/11/26 08:45:30;;;;;;;21.10;8.02;;;4.80;99.90;;;;;;5013602;28;20284;-86
2023/11/26 08:47:56;;;;;;;24.75;7.45;;;4.80;99.90;;;;;;5027030;28;20030;-86
2023/11/26 08:50:22;;;;;;;20.67;7.63;;;4.80;99.90;;;;;;5030386;28;20071;-86
2023/11/26 08:52:48;;;;;;;29.17;8.52;;;4.80;99.90;;;;;;5027063;28;20417;-87
2023/11/26 08:55:14;;;;;;;21.25;7.30;;;4.90;99.90;;;;;;5038204;28;20036;-87
2023/11/26 08:57:41;;;;;;;18.58;7.45;;;4.90;99.90;;;;;;5034356;28;20018;-86
2023/11/26 09:00:09;;;;;;;17.60;7.38;;;4.90;99.90;;;;;;5024946;28;20104;-86
2023/11/26 09:02:40;;;;;;;22.33;7.90;;;5.10;99.90;;;;;;5013956;28;20154;-86
2023/11/26 09:05:10;;;;;;;22.13;7.55;;;5.00;99.90;;;;;;5007540;28;20033;-87
2023/11/26 09:07:39;;;;;;;23.65;7.45;;;5.10;99.90;;;;;;5002612;28;21729;-86
2023/11/26 09:10:06;;;;;;;15.60;6.72;;;5.10;99.90;;;;;;5021190;28;20030;-87
2023/11/26 09:12:31;;;;;;;16.23;6.82;;;5.20;99.90;;;;;;5011203;28;20021;-87
2023/11/26 09:14:57;;;;;;;19.63;8.20;;;5.30;99.90;;;;;;5008043;28;20026;-87
2023/11/26 09:17:23;;;;;;;18.13;7.07;;;5.30;99.90;;;;;;5021242;28;20017;-86
2023/11/26 09:19:49;;;;;;;22.95;7.38;;;5.40;99.90;;;;;;5017533;28;20038;-86
2023/11/26 09:22:14;;;;;;;21.13;8.50;;;5.50;99.90;;;;;;5010357;28;20381;-85
2023/11/26 09:24:40;;;;;;;24.25;7.65;;;5.50;99.90;;;;;;5032158;28;20021;-86
2023/11/26 09:27:06;;;;;;;16.20;5.93;;;5.60;99.90;;;;;;5030653;28;20088;-86
2023/11/26 09:29:31;;;;;;;17.15;6.05;;;5.70;99.90;;;;;;5014489;28;20029;-86
2023/11/26 09:31:57;;;;;;;22.77;5.95;;;5.70;99.90;;;;;;5015143;28;20566;-86
2023/11/26 09:34:24;;;;;;;16.38;4.75;;;5.80;99.90;;;;;;5013754;28;20118;-86
2023/11/26 09:36:52;;;;;;;20.83;5.82;;;5.80;99.90;;;;;;5023255;28;20032;-86
2023/11/26 09:39:19;;;;;;;17.77;5.85;;;5.80;99.90;;;;;;5019235;28;20050;-86
2023/11/26 09:41:44;;;;;;;16.95;5.35;;;5.90;99.90;;;;;;5019310;28;20030;-86
2023/11/26 09:44:10;;;;;;;16.08;4.50;;;5.90;99.90;;;;;;5008914;28;20033;-86
2023/11/26 09:46:36;;;;;;;19.90;5.03;;;6.00;99.90;;;;;;5015150;28;20042;-86
2023/11/26 09:49:05;;;;;;;16.88;5.75;;;6.00;99.90;;;;;;5025928;28;20104;-86
2023/11/26 09:51:35;;;;;;;18.13;4.40;;;6.10;99.90;;;;;;5012439;28;20390;-86
2023/11/26 09:54:01;;;;;;;13.77;4.85;;;6.10;99.90;;;;;;5025955;28;20389;-86
2023/11/26 09:56:27;;;;;;;12.95;3.88;;;6.20;99.90;;;;;;5026030;28;20061;-86
2023/11/26 09:58:52;;;;;;;23.40;5.32;;;6.20;99.90;;;;;;5028210;28;20096;-86
2023/11/26 10:01:18;;;;;;;18.52;4.35;;;6.20;99.90;;;;;;5030783;28;20048;-86
2023/11/26 10:03:57;;;;;;;13.35;5.00;;;6.30;99.90;;;;;;5017476;28;20064;-86
2023/11/26 10:06:24;;;;;;;19.45;6.85;;;6.30;99.90;;;;;;5006501;28;20433;-86
2023/11/26 10:08:49;;;;;;;17.92;5.15;;;6.40;99.90;;;;;;5005886;28;20367;-87
2023/11/26 10:11:25;;;;;;;15.95;5.28;;;6.40;99.90;;;;;;5010892;28;20025;-86
2023/11/26 10:13:54;;;;;;;17.98;5.80;;;6.40;99.90;;;;;;5012287;28;20112;-86
2023/11/26 10:16:33;;;;;;;18.42;5.88;;;6.50;99.90;;;;;;5013883;28;20033;-85
2023/11/26 10:19:03;;;;;;;15.98;5.43;;;6.50;99.90;;;;;;5018756;28;20036;-86
2023/11/26 10:21:33;;;;;;;13.63;4.50;;;6.60;99.90;;;;;;4999940;28;20033;-86
2023/11/26 10:24:03;;;;;;;15.80;4.30;;;6.60;99.90;;;;;;5009940;28;20056;-86
2023/11/26 10:26:29;;;;;;;15.05;4.22;;;6.60;99.90;;;;;;5003544;28;20037;-85
2023/11/26 10:29:13;;;;;;;16.40;3.55;;;6.70;99.90;;;;;;5012128;28;20168;-86
2023/11/26 10:32:01;;;;;;;18.73;4.63;;;6.70;99.90;;;;;;5015001;28;20028;-86
2023/11/26 10:34:30;;;;;;;17.75;3.72;;;6.70;99.90;;;;;;5003637;28;20022;-86
2023/11/26 10:36:56;;;;;;;19.63;3.30;;;6.70;99.90;;;;;;5021763;28;20037;-86
2023/11/26 10:39:22;;;;;;;14.30;3.85;;;6.70;99.90;;;;;;5002856;28;20164;-86
2023/11/26 10:41:49;;;;;;;9.35;2.85;;;6.80;99.90;;;;;;5005980;28;20065;-86
2023/11/26 10:44:16;;;;;;;17.17;3.65;;;6.70;99.90;;;;;;5004874;28;20137;-86
2023/11/26 10:46:45;;;;;;;17.80;4.50;;;6.80;99.90;;;;;;4999895;28;20481;-87
2023/11/26 10:49:34;;;;;;;14.05;3.67;;;6.90;99.90;;;;;;5002883;28;20466;-86
2023/11/26 10:52:32;;;;;;;16.90;3.95;;;7.00;99.90;;;;;;5006685;28;20034;-86
2023/11/26 10:55:13;;;;;;;11.65;3.17;;;7.00;99.90;;;;;;5003933;28;20088;-88
2023/11/26 10:57:43;;;;;;;11.20;3.05;;;7.10;99.90;;;;;;5007881;28;20116;-86
2023/11/26 11:00:18;;;;;;;15.05;3.25;;;7.00;99.90;;;;;;5001229;28;20081;-86
2023/11/26 11:02:45;;;;;;;14.93;3.78;;;7.10;99.90;;;;;;5002132;28;20041;-86
2023/11/26 11:05:11;;;;;;;19.42;4.13;;;7.10;99.90;;;;;;5002161;28;20107;-86
2023/11/26 11:07:38;;;;;;;12.32;3.15;;;7.20;99.90;;;;;;5006776;28;20034;-85
2023/11/26 11:10:17;;;;;;;22.27;4.78;;;7.20;99.90;;;;;;5002319;28;20048;-86
2023/11/26 11:12:54;;;;;;;16.63;3.17;;;7.20;99.90;;;;;;5005161;28;20033;-86
2023/11/26 11:15:23;;;;;;;12.65;3.35;;;7.20;99.90;;;;;;5001470;28;20033;-85
2023/11/26 11:17:48;;;;;;;11.38;3.20;;;7.20;99.90;;;;;;5000606;28;20030;-85
2023/11/26 11:20:14;;;;;;;13.98;3.25;;;7.20;99.90;;;;;;5007107;28;20128;-85
2023/11/26 11:22:45;;;;;;;10.07;2.58;;;7.20;99.90;;;;;;5010449;28;20030;-86
2023/11/26 11:25:16;;;;;;;14.98;3.25;;;7.20;99.90;;;;;;5002753;28;20478;-86
2023/11/26 11:27:49;;;;;;;11.05;2.80;;;7.20;99.90;;;;;;4999245;28;20117;-85
2023/11/26 11:30:34;;;;;;;16.45;3.05;;;7.20;99.90;;;;;;5002698;28;20029;-85
2023/11/26 11:33:04;;;;;;;14.15;2.47;;;7.30;99.90;;;;;;5000683;28;20027;-85
2023/11/26 11:35:41;;;;;;;11.52;2.70;;;7.30;99.90;;;;;;5004497;28;20469;-86
2023/11/26 11:38:12;;;;;;;8.70;2.15;;;7.20;99.90;;;;;;5001896;28;20376;-85
2023/11/26 11:41:09;;;;;;;12.65;2.30;;;7.20;99.90;;;;;;5000917;28;20498;-87
2023/11/26 11:43:41;;;;;;;12.15;2.47;;;7.20;99.90;;;;;;4999528;28;20030;-85
2023/11/26 11:46:28;;;;;;;9.93;2.40;;;7.20;99.90;;;;;;4999455;28;20022;-85
2023/11/26 11:48:55;;;;;;;9.27;2.08;;;7.10;99.90;;;;;;5001122;28;20475;-85
2023/11/26 11:51:37;;;;;;;13.95;2.80;;;7.10;99.90;;;;;;4999568;28;20573;-86
2023/11/26 11:54:09;;;;;;;6.80;2.00;;;7.20;99.90;;;;;;5001918;28;20037;-85
2023/11/26 11:56:46;;;;;;;12.13;2.53;;;7.10;99.90;;;;;;5000208;28;20030;-85
2023/11/26 11:59:12;;;;;;;13.77;2.83;;;7.10;99.90;;;;;;4999515;28;20018;-85
2023/11/26 12:01:39;;;;;;;12.63;2.72;;;7.20;99.90;;;;;;5005273;28;20125;-85
2023/11/26 12:04:05;;;;;;;13.77;2.75;;;7.20;99.90;;;;;;5007269;28;20172;-86
2023/11/26 12:06:32;;;;;;;21.80;3.45;;;7.20;99.90;;;;;;4996872;28;20121;-86
2023/11/26 12:09:10;;;;;;;8.65;2.47;;;7.20;99.90;;;;;;4996518;28;20074;-85
2023/11/26 12:11:42;;;;;;;11.30;2.47;;;7.20;99.90;;;;;;5008706;28;20026;-86
2023/11/26 12:14:08;;;;;;;16.83;3.15;;;7.30;99.90;;;;;;5002494;28;20030;-85
2023/11/26 12:16:34;;;;;;;7.85;3.38;;;7.30;99.90;;;;;;5000497;28;20077;-85
2023/11/26 12:18:59;;;;;;;16.00;3.33;;;7.30;99.90;;;;;;4998920;28;20070;-85
2023/11/26 12:21:25;;;;;;;11.50;4.30;;;7.30;99.90;;;;;;5001577;28;20068;-85
2023/11/26 12:23:50;;;;;;;9.35;3.33;;;7.30;99.90;;;;;;5004961;28;20041;-85
2023/11/26 12:26:16;;;;;;;9.32;3.45;;;7.30;99.90;;;;;;4998320;28;20153;-85
2023/11/26 12:28:47;;;;;;;11.10;3.55;;;7.40;99.90;;;;;;4999773;28;20033;-85
2023/11/26 12:31:14;;;;;;;11.80;2.83;;;7.50;99.90;;;;;;5003803;28;20466;-86
2023/11/26 12:33:44;;;;;;;8.00;3.08;;;7.50;99.90;;;;;;5016252;28;20544;-85
2023/11/26 12:36:13;;;;;;;10.32;2.78;;;7.50;99.90;;;;;;4998003;28;20027;-85
2023/11/26 12:38:41;;;;;;;6.78;2.50;;;7.50;99.90;;;;;;4999027;28;20046;-86
2023/11/26 12:41:11;;;;;;;5.50;2.22;;;7.50;99.90;;;;;;4994467;28;20491;-85
2023/11/26 12:43:39;;;;;;;9.45;2.35;;;7.40;99.90;;;;;;5000708;28;20033;-86
2023/11/26 12:46:12;;;;;;;7.75;3.22;;;7.40;99.90;;;;;;4996491;28;20045;-86
2023/11/26 12:48:39;;;;;;;10.85;2.45;;;7.40;99.90;;;;;;5004917;28;20030;-85
2023/11/26 12:51:05;;;;;;;5.15;1.50;;;7.40;99.90;;;;;;5000247;28;20030;-85
2023/11/26 12:53:31;;;;;;;5.07;1.90;;;7.40;99.90;;;;;;5003189;28;20032;-85